createdAt,value
2022-12-12T00:02:04.914Z,29.20
2022-12-12T00:04:33.593Z,29.95
2022-12-12T00:07:00.041Z,26.25
2022-12-12T00:09:26.382Z,26.00
2022-12-12T00:11:52.900Z,25.20
2022-12-12T00:14:19.237Z,26.33
2022-12-12T00:16:45.774Z,28.70
2022-12-12T00:19:12.903Z,25.95
2022-12-12T00:21:39.271Z,26.77
2022-12-12T00:24:07.158Z,25.40
2022-12-12T00:26:34.678Z,27.15
2022-12-12T00:29:02.850Z,20.47
2022-12-12T00:31:30.135Z,25.63
2022-12-12T00:33:56.845Z,26.65
2022-12-12T00:36:26.529Z,27.40
2022-12-12T00:38:54.806Z,26.40
2022-12-12T00:41:22.180Z,25.90
2022-12-12T00:43:48.872Z,26.35
2022-12-12T00:46:17.878Z,27.65
2022-12-12T00:48:44.874Z,25.95
2022-12-12T00:51:17.943Z,26.40
2022-12-12T00:53:46.437Z,26.40
2022-12-12T00:58:43.751Z,27.50
2022-12-12T01:01:17.892Z,26.33
2022-12-12T01:03:44.779Z,26.95
2022-12-12T01:06:11.431Z,27.95
2022-12-12T01:08:40.940Z,28.13
2022-12-12T01:11:09.289Z,28.33
2022-12-12T01:13:36.161Z,27.73
2022-12-12T01:16:02.667Z,26.83
2022-12-12T01:18:29.720Z,27.27
2022-12-12T01:20:56.066Z,28.90
2022-12-12T01:23:22.508Z,27.63
2022-12-12T01:25:49.276Z,27.25
2022-12-12T01:28:15.764Z,27.30
2022-12-12T01:30:43.342Z,26.50
2022-12-12T01:33:12.210Z,27.27
2022-12-12T01:35:41.220Z,28.92
2022-12-12T01:38:07.517Z,29.45
2022-12-12T01:40:33.819Z,28.13
2022-12-12T01:43:00.424Z,27.90
2022-12-12T01:46:08.634Z,28.75
2022-12-12T01:48:45.594Z,26.25
2022-12-12T01:51:16.287Z,27.50
2022-12-12T01:53:44.346Z,26.10
2022-12-12T01:56:14.973Z,27.00
2022-12-12T01:58:47.864Z,27.35
2022-12-12T02:01:16.232Z,26.88
2022-12-12T02:03:44.761Z,27.48
2022-12-12T02:08:42.157Z,26.77
2022-12-12T02:11:09.065Z,25.50
2022-12-12T02:13:36.317Z,27.55
2022-12-12T02:16:35.664Z,27.40
2022-12-12T02:19:08.281Z,25.73
2022-12-12T02:21:34.599Z,28.17
2022-12-12T02:24:36.065Z,26.45
2022-12-12T02:27:24.313Z,28.02
2022-12-12T02:33:14.122Z,25.42
2022-12-12T02:35:56.854Z,26.98
2022-12-12T02:38:52.320Z,25.48
2022-12-12T02:41:37.389Z,26.67
2022-12-12T02:44:29.062Z,27.35
2022-12-12T02:47:18.702Z,24.70
2022-12-12T02:50:04.924Z,28.00
2022-12-12T02:52:32.554Z,26.17
2022-12-12T02:54:59.128Z,26.02
2022-12-12T02:57:26.934Z,27.67
2022-12-12T03:00:01.758Z,26.00
2022-12-12T03:02:47.039Z,27.13
2022-12-12T03:05:50.757Z,24.23
2022-12-12T03:09:12.275Z,27.35
2022-12-12T03:11:46.443Z,26.08
2022-12-12T03:14:33.537Z,23.67
2022-12-12T03:17:08.610Z,25.98
2022-12-12T03:19:59.193Z,24.10
2022-12-12T03:22:42.868Z,26.35
2022-12-12T03:25:18.552Z,26.85
2022-12-12T03:27:59.235Z,23.25
2022-12-12T03:30:27.982Z,24.75
2022-12-12T03:33:00.506Z,26.25
2022-12-12T03:35:40.496Z,26.80
2022-12-12T03:38:14.224Z,25.88
2022-12-12T03:40:48.776Z,27.42
2022-12-12T03:43:19.855Z,26.60
2022-12-12T03:46:09.210Z,26.10
2022-12-12T03:49:04.735Z,26.27
2022-12-12T03:51:36.316Z,26.35
2022-12-12T03:54:23.021Z,26.30
2022-12-12T03:57:10.565Z,24.70
2022-12-12T03:59:42.588Z,27.00
2022-12-12T04:02:24.360Z,23.17
2022-12-12T04:04:56.538Z,23.50
2022-12-12T04:07:29.698Z,25.02
2022-12-12T04:10:15.405Z,24.15
2022-12-12T04:13:00.160Z,25.17
2022-12-12T04:15:51.845Z,23.98
2022-12-12T04:18:45.724Z,25.48
2022-12-12T04:21:41.937Z,24.10
2022-12-12T04:24:38.897Z,25.70
2022-12-12T04:27:12.365Z,24.60
2022-12-12T04:29:46.210Z,26.25
2022-12-12T04:32:25.833Z,24.58
2022-12-12T04:35:02.292Z,23.52
2022-12-12T04:37:37.305Z,26.40
2022-12-12T04:40:09.342Z,26.15
2022-12-12T04:42:45.220Z,26.00
2022-12-12T04:45:20.585Z,25.15
2022-12-12T04:47:51.152Z,25.00
2022-12-12T04:50:22.124Z,26.33
2022-12-12T04:52:50.291Z,25.48
2022-12-12T04:55:27.418Z,25.10
2022-12-12T04:57:55.090Z,26.08
2022-12-12T05:00:24.987Z,24.92
2022-12-12T05:03:15.226Z,26.38
2022-12-12T05:05:48.758Z,25.92
2022-12-12T05:08:23.330Z,26.05
2022-12-12T05:10:56.018Z,26.08
2022-12-12T05:13:27.599Z,25.90
2022-12-12T05:15:57.714Z,24.15
2022-12-12T05:18:24.344Z,24.10
2022-12-12T05:20:51.326Z,25.73
2022-12-12T05:23:19.574Z,25.80
2022-12-12T05:25:45.991Z,25.70
2022-12-12T05:28:12.892Z,25.90
2022-12-12T05:30:39.623Z,26.45
2022-12-12T05:33:06.312Z,24.73
2022-12-12T05:35:36.744Z,24.60
2022-12-12T05:38:04.168Z,26.02
2022-12-12T05:40:30.837Z,26.02
2022-12-12T05:42:57.638Z,27.48
2022-12-12T05:45:24.486Z,24.95
2022-12-12T05:47:51.017Z,24.48
2022-12-12T05:50:17.522Z,23.00
2022-12-12T05:52:44.211Z,26.02
2022-12-12T05:55:10.947Z,25.70
2022-12-12T05:57:37.538Z,27.38
2022-12-12T06:00:04.983Z,26.60
2022-12-12T06:02:31.395Z,27.33
2022-12-12T06:04:57.871Z,25.70
2022-12-12T06:07:24.454Z,26.85
2022-12-12T06:09:50.820Z,27.13
2022-12-12T06:12:17.360Z,26.77
2022-12-12T06:14:43.807Z,26.20
2022-12-12T06:17:10.172Z,25.52
2022-12-12T06:19:36.612Z,25.48
2022-12-12T06:22:02.997Z,25.15
2022-12-12T06:24:29.356Z,27.48
2022-12-12T06:26:55.728Z,27.90
2022-12-12T06:29:22.146Z,26.30
2022-12-12T06:31:48.509Z,28.17
2022-12-12T06:34:15.002Z,25.58
2022-12-12T06:36:41.441Z,24.40
2022-12-12T06:39:07.816Z,27.55
2022-12-12T06:41:34.585Z,26.88
2022-12-12T06:44:01.091Z,27.33
2022-12-12T06:46:29.545Z,25.38
2022-12-12T06:51:26.502Z,26.30
2022-12-12T06:53:53.382Z,24.90
2022-12-12T06:56:23.408Z,25.30
2022-12-12T06:58:50.714Z,26.13
2022-12-12T07:01:19.477Z,26.00
2022-12-12T07:03:46.937Z,25.00
2022-12-12T07:06:13.746Z,24.45
2022-12-12T07:08:40.139Z,25.55
2022-12-12T07:11:10.527Z,26.17
2022-12-12T07:13:37.233Z,25.73
2022-12-12T07:16:04.352Z,26.65
2022-12-12T07:18:30.915Z,24.75
2022-12-12T07:20:57.466Z,22.92
2022-12-12T07:23:23.819Z,24.83
2022-12-12T07:25:50.427Z,25.92
2022-12-12T07:28:17.076Z,26.75
2022-12-12T07:30:46.155Z,27.10
2022-12-12T07:33:14.084Z,24.27
2022-12-12T07:35:41.676Z,24.60
2022-12-12T07:38:08.042Z,26.00
2022-12-12T07:40:34.541Z,24.52
2022-12-12T07:43:00.950Z,24.70
2022-12-12T07:45:28.727Z,25.35
2022-12-12T07:47:55.802Z,25.83
2022-12-12T07:50:22.549Z,26.98
2022-12-12T07:52:49.195Z,24.75
2022-12-12T07:55:16.547Z,25.67
2022-12-12T07:57:42.914Z,26.30
2022-12-12T08:00:13.120Z,25.08
2022-12-12T08:02:40.317Z,25.90
2022-12-12T08:05:09.325Z,28.60
2022-12-12T08:07:35.764Z,27.95
2022-12-12T08:10:03.155Z,27.35
2022-12-12T08:12:30.618Z,27.65
2022-12-12T08:14:57.017Z,27.13
2022-12-12T08:17:23.919Z,25.13
2022-12-12T08:19:50.548Z,26.73
2022-12-12T08:22:17.493Z,27.10
2022-12-12T08:24:43.881Z,26.73
2022-12-12T08:27:15.476Z,26.63
2022-12-12T08:29:42.053Z,27.40
2022-12-12T08:32:08.652Z,26.88
2022-12-12T08:34:35.272Z,26.58
2022-12-12T08:37:01.667Z,26.63
2022-12-12T08:39:28.226Z,24.58
2022-12-12T08:41:54.699Z,26.38
2022-12-12T08:44:21.801Z,26.60
2022-12-12T08:46:49.570Z,26.98
2022-12-12T08:49:16.079Z,27.60
2022-12-12T08:51:42.936Z,24.65
2022-12-12T08:54:11.698Z,25.55
2022-12-12T08:56:38.263Z,28.30
2022-12-12T08:59:04.981Z,26.85
2022-12-12T09:01:31.721Z,27.75
2022-12-12T09:03:58.660Z,26.00
2022-12-12T09:06:26.195Z,26.15
2022-12-12T09:08:53.220Z,27.37
2022-12-12T09:11:19.728Z,25.45
2022-12-12T09:13:46.118Z,27.73
2022-12-12T09:16:12.855Z,26.42
2022-12-12T09:18:44.578Z,28.00
2022-12-12T09:21:14.762Z,27.23
2022-12-12T09:23:41.271Z,27.17
2022-12-12T09:26:09.190Z,27.23
2022-12-12T09:28:36.306Z,28.40
2022-12-12T09:31:08.453Z,24.65
2022-12-12T09:33:36.959Z,27.80
2022-12-12T09:38:31.880Z,24.95
2022-12-12T09:41:02.843Z,26.35
2022-12-12T09:43:47.922Z,26.80
2022-12-12T09:46:38.504Z,27.83
2022-12-12T09:49:13.207Z,25.55
2022-12-12T09:51:42.161Z,26.83
2022-12-12T09:54:13.434Z,28.00
2022-12-12T09:56:51.635Z,28.60
2022-12-12T09:59:29.556Z,26.70
2022-12-12T10:02:25.576Z,27.23
2022-12-12T10:05:04.060Z,28.05
2022-12-12T10:07:41.348Z,25.15
2022-12-12T10:10:34.620Z,26.25
2022-12-12T10:13:04.607Z,27.80
2022-12-12T10:15:38.668Z,26.58
2022-12-12T10:18:14.129Z,26.90
2022-12-12T10:20:53.531Z,27.00
2022-12-12T10:23:29.245Z,27.10
2022-12-12T10:26:07.026Z,26.83
2022-12-12T10:28:35.350Z,27.65
2022-12-12T10:31:20.539Z,28.25
2022-12-12T10:34:24.755Z,28.55
2022-12-12T10:37:01.216Z,27.80
2022-12-12T10:39:42.790Z,30.23
2022-12-12T10:42:38.611Z,28.50
2022-12-12T10:45:23.171Z,28.10
2022-12-12T10:47:50.114Z,28.17
2022-12-12T10:50:32.629Z,26.55
2022-12-12T10:52:58.964Z,26.05
2022-12-12T10:55:37.310Z,27.58
2022-12-12T11:00:40.955Z,25.70
2022-12-12T11:03:29.290Z,28.02
2022-12-12T11:05:57.519Z,27.98
2022-12-12T11:08:28.686Z,28.20
2022-12-12T11:11:01.963Z,28.23
2022-12-12T11:13:29.440Z,29.45
2022-12-12T11:16:01.982Z,28.58
2022-12-12T11:18:29.615Z,28.40
2022-12-12T11:21:05.225Z,30.07
2022-12-12T11:23:33.538Z,28.10
2022-12-12T11:26:08.024Z,27.23
2022-12-12T11:28:39.863Z,27.77
2022-12-12T11:31:10.587Z,31.30
2022-12-12T11:33:45.544Z,29.55
2022-12-12T11:36:18.904Z,29.73
2022-12-12T11:38:49.542Z,29.98
2022-12-12T11:41:16.134Z,29.52
2022-12-12T11:43:45.544Z,28.17
2022-12-12T11:46:15.119Z,28.15
2022-12-12T11:48:47.935Z,29.85
2022-12-12T11:51:31.230Z,28.05
2022-12-12T11:53:58.298Z,29.83
2022-12-12T11:56:37.722Z,29.83
2022-12-12T11:59:22.577Z,30.58
2022-12-12T12:02:04.157Z,32.05
2022-12-12T12:04:46.952Z,30.95
2022-12-12T12:07:38.988Z,32.55
2022-12-12T12:10:37.124Z,30.63
2022-12-12T12:16:08.046Z,29.48
2022-12-12T12:19:01.696Z,29.58
2022-12-12T12:21:55.709Z,30.08
2022-12-12T12:24:37.217Z,29.35
2022-12-12T12:27:19.234Z,27.98
2022-12-12T12:30:06.355Z,27.83
2022-12-12T12:32:59.071Z,29.13
2022-12-12T12:35:25.356Z,28.50
2022-12-12T12:38:10.733Z,29.50
2022-12-12T12:40:59.321Z,30.50
2022-12-12T12:43:47.742Z,29.75
2022-12-12T12:46:42.508Z,28.95
2022-12-12T12:49:22.351Z,29.80
2022-12-12T12:52:03.049Z,27.92
2022-12-12T12:54:43.130Z,25.48
2022-12-12T12:57:34.835Z,23.92
2022-12-12T13:00:15.931Z,23.52
2022-12-12T13:03:04.125Z,25.63
2022-12-12T13:05:41.527Z,24.95
2022-12-12T13:08:11.491Z,27.05
2022-12-12T13:10:44.429Z,26.52
2022-12-12T13:13:23.095Z,28.50
2022-12-12T13:15:55.910Z,27.30
2022-12-12T13:18:22.288Z,28.63
2022-12-12T13:21:00.803Z,28.48
2022-12-12T13:23:56.517Z,30.02
2022-12-12T13:26:46.211Z,29.23
2022-12-12T13:29:47.978Z,26.77
2022-12-12T13:32:40.077Z,27.67
2022-12-12T13:35:12.252Z,25.35
2022-12-12T13:37:51.074Z,27.20
2022-12-12T13:40:25.528Z,26.05
2022-12-12T13:43:05.683Z,26.58
2022-12-12T13:45:40.062Z,26.35
2022-12-12T13:48:29.348Z,26.80
2022-12-12T13:51:27.321Z,26.30
2022-12-12T13:54:13.322Z,27.90
2022-12-12T13:56:59.658Z,28.65
2022-12-12T13:59:25.927Z,28.95
2022-12-12T14:01:58.614Z,26.38
2022-12-12T14:04:30.999Z,28.38
2022-12-12T14:07:00.616Z,31.25
2022-12-12T14:09:46.588Z,29.00
2022-12-12T14:12:31.555Z,25.77
2022-12-12T14:15:01.973Z,29.60
2022-12-12T14:17:38.386Z,31.08
2022-12-12T14:20:23.042Z,29.50
2022-12-12T14:22:49.345Z,29.33
2022-12-12T14:25:17.239Z,27.77
2022-12-12T14:27:51.365Z,29.00
2022-12-12T14:30:22.358Z,28.08
2022-12-12T14:33:01.095Z,26.85
2022-12-12T14:35:57.547Z,27.83
2022-12-12T14:38:48.117Z,26.15
2022-12-12T14:41:20.009Z,26.92
2022-12-12T14:44:37.085Z,25.88
2022-12-12T14:46:44.103Z,24.83
2022-12-12T14:49:17.906Z,24.88
2022-12-12T14:51:49.215Z,26.75
2022-12-12T14:54:20.197Z,26.20
2022-12-12T14:56:53.136Z,26.20
2022-12-12T14:59:26.212Z,27.95
2022-12-12T15:01:57.927Z,28.83
2022-12-12T15:04:28.962Z,29.55
2022-12-12T15:06:55.863Z,29.88
2022-12-12T15:09:34.373Z,30.83
2022-12-12T15:12:11.614Z,29.73
2022-12-12T15:14:51.778Z,29.85
2022-12-12T15:17:48.387Z,29.25
2022-12-12T15:20:18.679Z,30.52
2022-12-12T15:22:57.755Z,30.33
2022-12-12T15:25:27.698Z,32.25
2022-12-12T15:27:56.630Z,32.50
2022-12-12T15:30:33.104Z,32.58
2022-12-12T15:33:01.959Z,30.90
2022-12-12T15:35:28.928Z,33.83
2022-12-12T15:37:59.775Z,31.55
2022-12-12T15:40:30.866Z,33.42
2022-12-12T15:43:03.177Z,31.05
2022-12-12T15:45:36.756Z,33.30
2022-12-12T15:48:05.160Z,33.00
2022-12-12T15:53:08.528Z,30.67
2022-12-12T15:55:35.332Z,30.92
2022-12-12T15:58:02.335Z,32.40
2022-12-12T16:00:33.824Z,30.45
2022-12-12T16:03:07.175Z,33.08
2022-12-12T16:05:38.354Z,30.50
2022-12-12T16:08:34.525Z,32.63
2022-12-12T16:11:04.459Z,31.60
2022-12-12T16:13:41.542Z,32.28
2022-12-12T16:16:38.033Z,33.30
2022-12-12T16:19:21.820Z,31.45
2022-12-12T16:21:48.550Z,29.95
2022-12-12T16:24:24.695Z,30.77
2022-12-12T16:26:58.627Z,29.88
2022-12-12T16:29:26.565Z,30.75
2022-12-12T16:31:53.289Z,28.92
2022-12-12T16:34:19.710Z,29.50
2022-12-12T16:36:46.507Z,31.48
2022-12-12T16:39:13.759Z,32.60
2022-12-12T16:41:40.669Z,32.88
2022-12-12T16:44:07.766Z,30.63
2022-12-12T16:46:34.280Z,31.58
2022-12-12T16:49:04.487Z,32.08
2022-12-12T16:51:33.941Z,31.15
2022-12-12T16:54:00.609Z,30.48
2022-12-12T16:56:27.343Z,30.92
2022-12-12T16:58:56.171Z,30.65
2022-12-12T17:01:23.180Z,30.27
2022-12-12T17:03:49.756Z,31.45
2022-12-12T17:06:16.578Z,31.92
2022-12-12T17:08:42.897Z,31.35
2022-12-12T17:11:11.197Z,29.35
2022-12-12T17:16:05.684Z,30.85
2022-12-12T17:18:32.236Z,39.10
2022-12-12T17:20:58.613Z,70.90
2022-12-12T17:23:27.967Z,102.22
2022-12-12T17:25:59.099Z,55.55
2022-12-12T17:28:30.256Z,69.25
2022-12-12T17:30:56.724Z,69.45
2022-12-12T17:33:23.094Z,59.67
2022-12-12T17:36:06.270Z,52.83
2022-12-12T17:38:33.610Z,43.38
2022-12-12T17:41:04.147Z,40.05
2022-12-12T17:43:30.686Z,40.95
2022-12-12T17:45:59.754Z,39.72
2022-12-12T17:48:31.151Z,40.70
2022-12-12T17:51:03.743Z,43.38
2022-12-12T17:53:38.134Z,44.88
2022-12-12T17:56:08.828Z,41.03
2022-12-12T17:58:41.052Z,39.78
2022-12-12T18:01:20.885Z,40.60
2022-12-12T18:03:48.148Z,35.67
2022-12-12T18:06:15.499Z,38.78
2022-12-12T18:08:42.087Z,42.20
2022-12-12T18:11:10.388Z,42.20
2022-12-12T18:13:38.600Z,42.35
2022-12-12T18:16:06.136Z,42.05
2022-12-12T18:18:32.711Z,39.77
2022-12-12T18:24:07.891Z,37.15
2022-12-12T18:26:34.659Z,33.97
2022-12-12T18:29:04.466Z,36.67
2022-12-12T18:31:31.893Z,39.05
2022-12-12T18:33:58.577Z,36.43
2022-12-12T18:36:27.702Z,37.40
2022-12-12T18:38:59.524Z,34.15
2022-12-12T18:41:27.495Z,34.75
2022-12-12T18:43:55.014Z,34.95
2022-12-12T18:46:24.789Z,34.38
2022-12-12T18:48:51.219Z,36.20
2022-12-12T18:51:20.386Z,32.53
2022-12-12T18:53:47.589Z,33.10
2022-12-12T18:56:23.028Z,36.35
2022-12-12T18:58:49.811Z,37.38
2022-12-12T19:01:19.129Z,36.20
2022-12-12T19:03:48.539Z,39.67
2022-12-12T19:06:18.548Z,39.85
2022-12-12T19:08:45.011Z,37.17
2022-12-12T19:11:12.665Z,35.50
2022-12-12T19:13:39.289Z,37.15
2022-12-12T19:16:08.160Z,34.90
2022-12-12T19:18:35.828Z,39.10
2022-12-12T19:21:11.835Z,47.15
2022-12-12T19:23:39.184Z,45.55
2022-12-12T19:26:13.910Z,31.17
2022-12-12T19:28:40.420Z,38.63
2022-12-12T19:31:09.594Z,34.47
2022-12-12T19:33:38.405Z,34.80
2022-12-12T19:36:17.855Z,36.60
2022-12-12T19:38:45.476Z,38.08
2022-12-12T19:41:14.726Z,39.47
2022-12-12T19:43:43.092Z,38.67
2022-12-12T19:46:21.651Z,43.08
2022-12-12T19:48:49.047Z,42.80
2022-12-12T19:51:18.161Z,40.40
2022-12-12T19:53:46.746Z,39.63
2022-12-12T19:56:15.172Z,42.42
2022-12-12T20:01:18.200Z,37.05
2022-12-12T20:03:56.650Z,34.90
2022-12-12T20:06:24.690Z,37.15
2022-12-12T20:08:51.866Z,37.40
2022-12-12T20:11:21.194Z,33.83
2022-12-12T20:13:55.738Z,37.00
2022-12-12T20:16:25.468Z,33.75
2022-12-12T20:18:53.386Z,34.65
2022-12-12T20:21:51.810Z,35.50
2022-12-12T20:24:10.012Z,34.20
2022-12-12T20:26:39.397Z,37.42
2022-12-12T20:29:07.262Z,34.33
2022-12-12T20:31:36.976Z,38.28
2022-12-12T20:34:03.972Z,37.88
2022-12-12T20:36:33.998Z,36.80
2022-12-12T20:39:03.225Z,38.67
2022-12-12T20:41:32.583Z,38.47
2022-12-12T20:43:59.777Z,39.92
2022-12-12T20:46:32.532Z,39.97
2022-12-12T20:49:00.901Z,39.33
2022-12-12T20:54:19.824Z,37.85
2022-12-12T20:56:47.391Z,38.13
2022-12-12T20:59:14.608Z,43.92
2022-12-12T21:01:41.932Z,43.03
2022-12-12T21:04:09.364Z,42.63
2022-12-12T21:06:38.947Z,45.42
2022-12-12T21:09:09.429Z,43.65
2022-12-12T21:11:37.852Z,42.33
2022-12-12T21:14:04.859Z,40.90
2022-12-12T21:16:34.883Z,39.42
2022-12-12T21:19:05.338Z,42.58
2022-12-12T21:21:31.946Z,41.47
2022-12-12T21:23:59.213Z,39.22
2022-12-12T21:26:29.145Z,36.95
2022-12-12T21:28:56.410Z,38.50
2022-12-12T21:31:28.463Z,36.67
2022-12-12T21:33:55.167Z,38.72
2022-12-12T21:36:23.864Z,38.60
2022-12-12T21:38:52.133Z,37.17
2022-12-12T21:43:48.395Z,29.27
2022-12-12T21:46:22.113Z,37.40
2022-12-12T21:49:12.170Z,38.70
2022-12-12T21:51:42.011Z,36.22
2022-12-12T21:54:09.749Z,38.92
2022-12-12T21:56:36.821Z,37.00
2022-12-12T21:59:03.927Z,33.92
2022-12-12T22:01:32.480Z,38.65
2022-12-12T22:04:00.152Z,38.00
2022-12-12T22:06:29.402Z,36.88
2022-12-12T22:08:56.449Z,35.65
2022-12-12T22:11:34.362Z,34.25
2022-12-12T22:14:08.673Z,33.90
2022-12-12T22:16:35.605Z,30.42
2022-12-12T22:19:07.107Z,33.88
2022-12-12T22:21:34.800Z,31.00
2022-12-12T22:24:01.747Z,32.20
2022-12-12T22:26:29.680Z,30.80
2022-12-12T22:29:01.953Z,30.17
2022-12-12T22:31:34.416Z,29.58
2022-12-12T22:34:03.683Z,30.83
2022-12-12T22:36:32.263Z,29.35
2022-12-12T22:39:00.011Z,31.63
2022-12-12T22:41:28.892Z,31.90
2022-12-12T22:43:57.468Z,30.35
2022-12-12T22:46:26.469Z,30.92
2022-12-12T22:48:56.923Z,32.38
2022-12-12T22:51:32.594Z,31.35
2022-12-12T22:54:01.684Z,32.75
2022-12-12T22:56:29.126Z,34.35
2022-12-12T22:58:55.549Z,34.17
2022-12-12T23:01:23.119Z,33.20
2022-12-12T23:03:50.480Z,24.27
2022-12-12T23:06:30.106Z,30.53
2022-12-12T23:09:00.879Z,33.65
2022-12-12T23:11:29.807Z,34.33
2022-12-12T23:14:00.198Z,33.58
2022-12-12T23:16:31.059Z,32.88
2022-12-12T23:18:58.774Z,32.97
2022-12-12T23:21:26.230Z,23.48
2022-12-12T23:23:54.451Z,29.80
2022-12-12T23:26:27.074Z,28.92
2022-12-12T23:28:53.521Z,33.47
2022-12-12T23:31:26.609Z,29.85
2022-12-12T23:33:59.248Z,29.15
2022-12-12T23:36:27.459Z,28.88
2022-12-12T23:38:58.509Z,31.35
2022-12-12T23:41:25.690Z,30.27
2022-12-12T23:43:52.491Z,28.98
2022-12-12T23:46:29.850Z,30.08
2022-12-12T23:49:25.632Z,30.25
2022-12-12T23:51:55.579Z,30.90
2022-12-12T23:54:24.472Z,30.73
2022-12-12T23:56:52.354Z,32.40
2022-12-12T23:59:20.835Z,30.65
